Malaysia Virtual Airlines Airport Information Service

Macau International Airport

ICAO: VMMC Country: Macau
Latitude: 22.1496 Longitude: 113.592
Latest Arrival : AK1301 (WBKK-VMMC) Latest Departure : AK189 (VMMC-WMKK)


WX CaptureLIVE
Data provided by noaa.gov | Fetched at 06:33:31

METAR : VMMC 290600Z 36011KT CAVOK 24/15 Q1015 NOSIG

TAF : VMMC 290500Z 2906/3012 01010KT CAVOK TEMPO 3000/3006 36015G25KT


Runway Data for VMMC
Data provided by openaviationdata.com

Runway ID Mag Var Hdg Length Elevation Surface ILS Freq ILS Id ILS Slope
16 -2 163° 11048 ft 20 ft Concrete 111.7 MCS 0
34 -2 343° 11048 ft 20 ft Concrete 109.7 MCN 3

Macau International Airport, Macau
Use only for reference purposes



Not for navigational purposes.